Time;durP1;ratioP1;P1;durP2;ratioP2;P2;SDS_P1;SDS_P2;PMS_P1;PMS_P2;Temp;Humidity;BMP_temperature;BMP_pressure;BME280_temperature;BME280_humidity;BME280_pressure;Samples;Min_cycle;Max_cycle;Signal;HPM_P1;HPM_P2
2024/04/20 00:00:32;;;;;;;3.80;3.50;;;9.60;99.90;;;;;;5416862;26;20514;-59
2024/04/20 00:02:58;;;;;;;5.73;4.00;;;9.60;99.90;;;;;;5416764;26;20229;-59
2024/04/20 00:05:23;;;;;;;3.93;3.63;;;9.50;99.90;;;;;;5416630;26;20223;-59
2024/04/20 00:07:49;;;;;;;4.90;4.50;;;9.50;99.90;;;;;;5416632;26;20235;-59
2024/04/20 00:10:16;;;;;;;5.10;4.60;;;9.50;99.90;;;;;;5416215;26;20242;-59
2024/04/20 00:12:43;;;;;;;4.77;4.33;;;9.50;99.90;;;;;;5417157;26;20451;-59
2024/04/20 00:15:09;;;;;;;5.23;3.80;;;9.40;99.90;;;;;;5416070;26;20510;-59
2024/04/20 00:17:36;;;;;;;4.10;3.90;;;9.40;99.90;;;;;;5416180;26;20537;-59
2024/04/20 00:20:02;;;;;;;4.43;4.00;;;9.40;99.90;;;;;;5416899;26;20867;-59
2024/04/20 00:22:28;;;;;;;5.10;4.60;;;9.30;99.90;;;;;;5415859;26;20490;-59
2024/04/20 00:24:53;;;;;;;4.53;4.23;;;9.30;99.90;;;;;;5416671;26;20571;-59
2024/04/20 00:27:19;;;;;;;4.53;4.13;;;9.30;99.90;;;;;;5416296;26;20243;-59
2024/04/20 00:29:45;;;;;;;4.53;4.13;;;9.30;99.90;;;;;;5416472;26;20722;-59
2024/04/20 00:32:10;;;;;;;4.50;4.10;;;9.20;99.90;;;;;;5416115;26;20236;-59
2024/04/20 00:34:37;;;;;;;6.90;4.50;;;9.30;99.90;;;;;;5416483;26;20765;-59
2024/04/20 00:37:04;;;;;;;4.90;3.83;;;9.30;99.90;;;;;;5416541;26;20244;-59
2024/04/20 00:39:29;;;;;;;4.13;3.90;;;9.30;99.90;;;;;;5415582;26;20441;-59
2024/04/20 00:41:55;;;;;;;5.03;4.67;;;9.30;99.90;;;;;;5416936;26;20749;-59
2024/04/20 00:44:21;;;;;;;4.77;4.43;;;9.30;99.90;;;;;;5415952;26;20560;-59
2024/04/20 00:47:01;;;;;;;4.60;4.30;;;9.40;99.90;;;;;;5416590;26;20494;-59
2024/04/20 00:49:27;;;;;;;6.40;5.03;;;9.30;99.90;;;;;;5415802;26;20450;-59
2024/04/20 00:51:54;;;;;;;4.80;4.27;;;9.40;99.90;;;;;;5416151;26;20437;-59
2024/04/20 00:54:20;;;;;;;5.83;4.70;;;9.40;99.90;;;;;;5415359;26;20464;-59
2024/04/20 00:56:46;;;;;;;4.90;4.40;;;9.40;99.90;;;;;;5416114;26;20544;-59
2024/04/20 00:59:12;;;;;;;5.23;4.50;;;9.40;99.90;;;;;;5415553;26;20534;-59
2024/04/20 01:01:38;;;;;;;5.07;4.67;;;9.30;99.90;;;;;;5416535;26;20436;-59
2024/04/20 01:04:04;;;;;;;4.67;4.30;;;9.30;99.90;;;;;;5415825;26;20453;-59
2024/04/20 01:06:30;;;;;;;4.50;4.10;;;9.30;99.90;;;;;;5415540;26;20455;-59
2024/04/20 01:08:56;;;;;;;5.33;4.73;;;9.30;99.90;;;;;;5415640;26;20517;-59
2024/04/20 01:11:22;;;;;;;5.23;4.03;;;9.40;99.90;;;;;;5415694;26;20596;-59
2024/04/20 01:14:02;;;;;;;8.60;4.10;;;9.30;99.90;;;;;;5415909;26;20469;-59
2024/04/20 01:16:28;;;;;;;4.60;4.30;;;9.30;99.90;;;;;;5414717;26;20439;-59
2024/04/20 01:18:54;;;;;;;4.93;3.70;;;9.30;99.90;;;;;;5434291;26;20479;-59
2024/04/20 01:21:23;;;;;;;4.90;4.50;;;9.20;99.90;;;;;;5450975;26;20492;-59
2024/04/20 01:23:53;;;;;;;5.30;4.33;;;9.20;99.90;;;;;;5451584;26;20220;-59
2024/04/20 01:26:19;;;;;;;4.67;4.37;;;9.10;99.90;;;;;;5450992;26;21150;-59
2024/04/20 01:28:45;;;;;;;5.10;4.70;;;9.10;99.90;;;;;;5419618;26;20468;-59
2024/04/20 01:31:10;;;;;;;5.10;4.70;;;9.10;99.90;;;;;;5454888;26;20230;-59
2024/04/20 01:33:36;;;;;;;4.77;4.10;;;9.10;99.90;;;;;;5422707;26;20345;-59
2024/04/20 01:36:02;;;;;;;4.83;4.43;;;9.10;99.90;;;;;;5455173;26;20339;-59
2024/04/20 01:38:28;;;;;;;4.67;4.27;;;9.10;99.90;;;;;;5454319;26;20231;-59
2024/04/20 01:40:53;;;;;;;4.77;4.37;;;9.10;99.90;;;;;;5455075;26;20561;-59
2024/04/20 01:43:20;;;;;;;4.67;4.13;;;9.00;99.90;;;;;;5454400;26;20240;-59
2024/04/20 01:45:46;;;;;;;6.33;5.20;;;9.00;99.90;;;;;;5454951;26;20290;-59
2024/04/20 01:48:12;;;;;;;5.20;4.80;;;9.00;99.90;;;;;;5455117;26;20460;-59
2024/04/20 01:50:38;;;;;;;5.40;4.87;;;9.00;99.90;;;;;;5455133;26;20569;-59
2024/04/20 01:53:04;;;;;;;6.07;4.47;;;9.10;99.90;;;;;;5454705;26;20539;-59
2024/04/20 01:55:31;;;;;;;4.50;4.20;;;9.10;99.90;;;;;;5453970;26;20710;-59
2024/04/20 01:57:56;;;;;;;4.77;3.90;;;9.10;99.90;;;;;;5454897;26;20443;-59
2024/04/20 02:00:22;;;;;;;6.20;4.40;;;9.10;99.90;;;;;;5454154;26;20504;-59
2024/04/20 02:02:48;;;;;;;4.80;4.40;;;9.10;99.90;;;;;;5454680;26;20709;-59
2024/04/20 02:05:15;;;;;;;7.77;4.60;;;9.00;99.90;;;;;;5454307;26;20621;-59
2024/04/20 02:07:40;;;;;;;6.90;5.33;;;9.00;99.90;;;;;;5454714;26;20444;-59
2024/04/20 02:10:06;;;;;;;5.30;4.80;;;9.00;99.90;;;;;;5454437;26;20874;-59
2024/04/20 02:12:32;;;;;;;5.70;5.20;;;9.00;99.90;;;;;;5453695;26;20345;-59
2024/04/20 02:14:58;;;;;;;8.40;5.83;;;9.00;99.90;;;;;;5454650;26;20503;-59
2024/04/20 02:17:26;;;;;;;5.00;4.60;;;9.00;99.90;;;;;;5453805;26;20289;-59
2024/04/20 02:19:52;;;;;;;8.30;4.60;;;9.00;99.90;;;;;;5421012;26;20228;-59
2024/04/20 02:22:18;;;;;;;10.73;5.60;;;9.00;99.90;;;;;;5417647;26;20571;-59
2024/04/20 02:24:43;;;;;;;6.70;5.40;;;9.00;99.90;;;;;;5418421;26;20271;-59
2024/04/20 02:27:09;;;;;;;5.50;5.10;;;9.00;99.90;;;;;;5418645;26;20231;-59
2024/04/20 02:29:35;;;;;;;6.47;4.87;;;9.00;99.90;;;;;;5417646;26;21075;-59
2024/04/20 02:32:01;;;;;;;6.50;5.40;;;9.00;99.90;;;;;;5418626;26;20227;-60
2024/04/20 02:34:27;;;;;;;6.87;5.63;;;9.00;99.90;;;;;;5417682;26;20257;-59
2024/04/20 02:37:08;;;;;;;5.97;5.13;;;9.00;99.90;;;;;;5386328;26;20449;-59
2024/04/20 02:39:36;;;;;;;5.57;5.07;;;8.90;99.90;;;;;;5411426;26;20227;-59
2024/04/20 02:42:06;;;;;;;6.03;5.43;;;8.90;99.90;;;;;;5418076;26;20477;-59
2024/04/20 02:44:32;;;;;;;5.90;5.40;;;8.90;99.90;;;;;;5417392;26;20889;-59
2024/04/20 02:46:58;;;;;;;5.80;5.37;;;8.80;99.90;;;;;;5417850;26;21117;-59
2024/04/20 02:49:24;;;;;;;6.77;6.17;;;8.90;99.90;;;;;;5417670;26;20453;-59
2024/04/20 02:51:49;;;;;;;6.00;5.50;;;8.90;99.90;;;;;;5417859;26;20478;-59
2024/04/20 02:54:16;;;;;;;6.33;5.43;;;8.90;99.90;;;;;;5386739;26;20270;-59
2024/04/20 02:56:42;;;;;;;7.70;5.90;;;8.90;99.90;;;;;;5418234;26;20266;-59
2024/04/20 02:59:08;;;;;;;6.27;5.67;;;8.90;99.90;;;;;;5417724;26;20446;-59
2024/04/20 03:01:34;;;;;;;6.90;5.83;;;8.90;99.90;;;;;;5417969;26;21095;-59
2024/04/20 03:04:00;;;;;;;6.43;5.80;;;9.00;99.90;;;;;;5417889;26;20458;-59
2024/04/20 03:06:26;;;;;;;6.77;6.10;;;8.90;99.90;;;;;;5417017;26;20295;-59
2024/04/20 03:08:52;;;;;;;9.07;6.70;;;8.90;99.90;;;;;;5417401;26;20240;-59
2024/04/20 03:11:19;;;;;;;7.70;5.60;;;8.90;99.90;;;;;;5417533;26;20435;-59
2024/04/20 03:13:45;;;;;;;6.83;6.33;;;9.00;99.90;;;;;;5416945;26;20503;-59
2024/04/20 03:16:12;;;;;;;9.80;6.70;;;9.00;99.90;;;;;;5417233;26;20980;-59
2024/04/20 03:18:38;;;;;;;7.10;6.60;;;9.00;99.90;;;;;;5430733;26;20531;-59
2024/04/20 03:21:08;;;;;;;7.73;6.90;;;9.00;99.90;;;;;;5453552;26;20484;-59
2024/04/20 03:23:33;;;;;;;9.97;6.87;;;8.90;99.90;;;;;;5392871;26;20434;-59
2024/04/20 03:25:59;;;;;;;7.13;6.60;;;8.90;99.90;;;;;;5452947;26;20514;-59
2024/04/20 03:28:25;;;;;;;10.20;7.23;;;8.90;99.90;;;;;;5452180;26;20257;-59
2024/04/20 03:30:52;;;;;;;9.00;7.27;;;8.90;99.90;;;;;;5452936;26;20444;-59
2024/04/20 03:33:20;;;;;;;7.50;6.80;;;8.90;99.90;;;;;;5452856;26;20755;-59
2024/04/20 03:35:45;;;;;;;8.60;6.23;;;8.90;99.90;;;;;;5452480;26;20494;-59
2024/04/20 03:38:11;;;;;;;6.87;6.10;;;9.00;99.90;;;;;;5453435;26;20448;-59
2024/04/20 03:40:37;;;;;;;8.77;6.30;;;8.90;99.90;;;;;;5452283;26;20281;-59
2024/04/20 03:43:03;;;;;;;7.97;6.50;;;8.90;99.90;;;;;;5421270;26;20446;-59
2024/04/20 03:45:28;;;;;;;8.63;6.63;;;8.90;99.90;;;;;;5452747;26;20234;-59
2024/04/20 03:47:54;;;;;;;6.53;6.03;;;8.90;99.90;;;;;;5453286;26;20285;-59
2024/04/20 03:50:23;;;;;;;10.47;6.73;;;8.90;99.90;;;;;;5452332;26;20265;-59
2024/04/20 03:52:48;;;;;;;8.07;6.07;;;9.00;99.90;;;;;;5420570;26;20687;-59
2024/04/20 03:55:14;;;;;;;6.93;5.87;;;8.90;99.90;;;;;;5452521;26;20526;-59
2024/04/20 03:57:40;;;;;;;11.17;6.27;;;8.90;99.90;;;;;;5452145;26;20318;-59
2024/04/20 04:00:08;;;;;;;7.83;6.30;;;8.90;99.90;;;;;;5452678;26;20263;-59
2024/04/20 04:02:34;;;;;;;6.70;6.20;;;8.90;99.90;;;;;;5452119;26;20564;-59
2024/04/20 04:04:59;;;;;;;6.77;6.20;;;9.00;99.90;;;;;;5421257;26;20827;-59
2024/04/20 04:07:25;;;;;;;13.17;7.03;;;8.90;99.90;;;;;;5420533;26;20445;-59
2024/04/20 04:09:51;;;;;;;7.07;6.37;;;9.00;99.90;;;;;;5453040;26;20239;-59
2024/04/20 04:12:17;;;;;;;8.50;7.07;;;9.00;99.90;;;;;;5453074;26;20241;-59
2024/04/20 04:14:42;;;;;;;7.10;6.40;;;9.00;99.90;;;;;;5420691;26;20561;-59
2024/04/20 04:17:08;;;;;;;6.53;6.03;;;9.10;99.90;;;;;;5453128;26;20229;-59
2024/04/20 04:19:34;;;;;;;7.17;6.50;;;9.10;99.90;;;;;;5414580;26;20435;-59
2024/04/20 04:21:59;;;;;;;7.90;6.90;;;9.10;99.90;;;;;;5417226;26;20288;-59
2024/04/20 04:24:25;;;;;;;7.30;6.50;;;9.10;99.90;;;;;;5416371;26;20221;-59
2024/04/20 04:26:53;;;;;;;6.70;6.10;;;9.10;99.90;;;;;;5417064;26;20547;-59
2024/04/20 04:29:18;;;;;;;8.10;7.20;;;9.00;99.90;;;;;;5417105;26;20426;-59
2024/04/20 04:31:44;;;;;;;8.00;6.13;;;9.10;99.90;;;;;;5416623;26;20819;-59
2024/04/20 04:34:10;;;;;;;7.40;6.70;;;9.10;99.90;;;;;;5417062;26;20219;-59
2024/04/20 04:36:36;;;;;;;6.40;5.90;;;9.10;99.90;;;;;;5415828;26;20301;-59
2024/04/20 04:39:04;;;;;;;6.20;5.70;;;9.10;99.90;;;;;;5416861;26;20232;-60
2024/04/20 04:41:29;;;;;;;8.03;6.20;;;9.10;99.90;;;;;;5416328;26;20267;-59
2024/04/20 04:43:55;;;;;;;6.60;6.20;;;9.20;99.90;;;;;;5416114;26;20435;-63
2024/04/20 04:46:21;;;;;;;7.30;6.63;;;9.20;99.90;;;;;;5416853;26;20302;-65
2024/04/20 04:48:46;;;;;;;6.30;5.80;;;9.30;99.90;;;;;;5416126;26;20527;-66
2024/04/20 04:51:12;;;;;;;6.37;5.87;;;9.30;99.90;;;;;;5415759;26;20263;-65
2024/04/20 04:53:38;;;;;;;5.90;5.50;;;9.30;99.90;;;;;;5415901;26;20231;-68
2024/04/20 04:56:04;;;;;;;8.73;6.43;;;9.30;99.90;;;;;;5416822;26;20228;-62
2024/04/20 04:58:30;;;;;;;6.37;5.90;;;9.30;99.90;;;;;;5415301;26;20228;-62
2024/04/20 05:00:55;;;;;;;7.70;6.67;;;9.30;99.90;;;;;;5416114;26;20514;-62
2024/04/20 05:03:21;;;;;;;8.23;5.73;;;9.40;99.90;;;;;;5416098;26;20277;-65
2024/04/20 05:05:51;;;;;;;7.20;6.60;;;9.50;99.90;;;;;;5415821;26;20234;-61
2024/04/20 05:08:16;;;;;;;7.00;6.20;;;9.40;99.90;;;;;;5416221;26;20218;-63
2024/04/20 05:10:42;;;;;;;8.07;7.27;;;9.40;99.90;;;;;;5380306;26;20553;-59
2024/04/20 05:13:08;;;;;;;7.27;6.70;;;9.50;99.90;;;;;;5413641;26;20240;-62
2024/04/20 05:15:34;;;;;;;7.53;6.83;;;9.50;99.90;;;;;;5415726;26;20625;-62
2024/04/20 05:18:00;;;;;;;8.00;7.27;;;9.50;99.90;;;;;;5421265;26;20591;-62
2024/04/20 05:20:26;;;;;;;9.00;6.50;;;9.50;99.90;;;;;;5419838;26;20444;-74
2024/04/20 05:22:52;;;;;;;7.27;6.77;;;9.60;99.90;;;;;;5452374;26;20268;-62
2024/04/20 05:25:18;;;;;;;7.30;6.80;;;9.60;99.90;;;;;;5452068;26;20435;-62
2024/04/20 05:27:43;;;;;;;7.70;7.13;;;9.60;99.90;;;;;;5450855;26;20672;-62
2024/04/20 05:30:09;;;;;;;7.27;6.67;;;9.60;99.90;;;;;;5452006;26;20219;-61
2024/04/20 05:32:36;;;;;;;8.20;7.60;;;9.60;99.90;;;;;;5451163;26;20271;-66
2024/04/20 05:35:01;;;;;;;8.50;7.80;;;9.60;99.90;;;;;;5451691;26;20437;-62
2024/04/20 05:37:27;;;;;;;9.37;8.40;;;9.60;99.90;;;;;;5450682;26;20844;-65
2024/04/20 05:39:53;;;;;;;9.10;8.30;;;9.60;99.90;;;;;;5451637;26;20706;-62
2024/04/20 05:42:18;;;;;;;10.07;9.10;;;9.60;99.90;;;;;;5451364;26;20269;-61
2024/04/20 05:44:44;;;;;;;9.97;9.07;;;9.70;99.90;;;;;;5450376;26;20231;-60
2024/04/20 05:47:10;;;;;;;9.47;8.67;;;9.60;99.90;;;;;;5450986;26;20240;-60
2024/04/20 05:49:39;;;;;;;9.43;8.53;;;9.60;99.90;;;;;;5450930;26;20255;-61
2024/04/20 05:52:05;;;;;;;8.30;7.70;;;9.60;99.90;;;;;;5451635;26;20230;-60
2024/04/20 05:54:31;;;;;;;8.43;7.83;;;9.60;99.90;;;;;;5450773;26;20439;-61
2024/04/20 05:56:57;;;;;;;8.50;7.73;;;9.60;99.90;;;;;;5451478;26;20866;-61
2024/04/20 05:59:22;;;;;;;8.10;7.40;;;9.60;99.90;;;;;;5451203;26;20335;-61
2024/04/20 06:01:48;;;;;;;8.63;7.60;;;9.70;99.90;;;;;;5450440;26;20228;-60
2024/04/20 06:04:16;;;;;;;7.27;6.60;;;9.70;99.90;;;;;;5451360;26;20287;-61
2024/04/20 06:06:41;;;;;;;6.93;6.37;;;9.70;99.90;;;;;;5450620;26;20324;-61
2024/04/20 06:09:08;;;;;;;7.80;7.10;;;9.60;99.90;;;;;;5450934;26;20458;-60
2024/04/20 06:11:36;;;;;;;10.40;6.90;;;9.60;99.90;;;;;;5418908;26;20221;-61
2024/04/20 06:14:01;;;;;;;5.80;5.40;;;9.70;99.90;;;;;;5450422;26;20442;-61
2024/04/20 06:16:27;;;;;;;6.57;6.07;;;9.70;99.90;;;;;;5453363;26;21071;-61
2024/04/20 06:18:53;;;;;;;5.80;5.30;;;9.70;99.90;;;;;;5435285;26;20364;-60
2024/04/20 06:21:19;;;;;;;7.37;6.40;;;9.60;99.90;;;;;;5419234;26;20310;-61
2024/04/20 06:23:45;;;;;;;7.17;6.40;;;9.70;99.90;;;;;;5418391;26;20446;-60
2024/04/20 06:26:11;;;;;;;6.63;6.13;;;9.70;99.90;;;;;;5417384;26;20230;-61
2024/04/20 06:28:36;;;;;;;6.80;6.20;;;9.70;99.90;;;;;;5418090;26;20233;-61
2024/04/20 06:31:04;;;;;;;6.93;6.43;;;9.80;99.90;;;;;;5418626;26;20280;-60
2024/04/20 06:33:30;;;;;;;6.40;5.90;;;9.80;99.90;;;;;;5387403;26;20229;-65
2024/04/20 06:35:55;;;;;;;6.57;6.03;;;9.80;99.90;;;;;;5418096;26;20452;-60
2024/04/20 06:38:21;;;;;;;8.40;7.77;;;9.90;99.90;;;;;;5417999;26;20583;-63
2024/04/20 06:40:48;;;;;;;8.60;7.90;;;9.90;99.90;;;;;;5417541;26;20728;-63
2024/04/20 06:43:14;;;;;;;8.50;7.90;;;9.90;99.90;;;;;;5418527;26;20219;-62
2024/04/20 06:45:41;;;;;;;8.53;7.83;;;9.90;99.90;;;;;;5417794;26;20508;-62
2024/04/20 06:48:07;;;;;;;8.43;7.30;;;9.90;99.90;;;;;;5417747;26;20835;-63
2024/04/20 06:50:35;;;;;;;7.30;6.70;;;9.90;99.90;;;;;;5416647;26;20448;-69
2024/04/20 06:53:02;;;;;;;7.20;6.70;;;9.90;99.90;;;;;;5386234;26;20893;-64
2024/04/20 06:55:28;;;;;;;10.60;7.17;;;9.90;99.90;;;;;;5417306;26;20476;-63
2024/04/20 06:57:54;;;;;;;7.70;7.10;;;9.90;99.90;;;;;;5416206;26;20512;-62
2024/04/20 07:00:19;;;;;;;7.43;6.70;;;9.90;99.90;;;;;;5417907;26;20563;-62
2024/04/20 07:02:45;;;;;;;7.37;6.67;;;10.00;99.90;;;;;;5416888;26;20263;-62
2024/04/20 07:05:12;;;;;;;10.17;6.97;;;10.00;99.90;;;;;;5385843;26;20590;-63
2024/04/20 07:07:38;;;;;;;7.00;6.17;;;10.00;99.90;;;;;;5416539;26;20234;-63
2024/04/20 07:10:04;;;;;;;8.17;7.37;;;10.00;99.90;;;;;;5386189;26;20457;-62
2024/04/20 07:12:29;;;;;;;7.10;6.60;;;10.00;99.90;;;;;;5417965;26;20695;-62
2024/04/20 07:14:55;;;;;;;6.23;5.70;;;10.00;99.90;;;;;;5417474;26;20433;-62
2024/04/20 07:17:21;;;;;;;7.07;6.57;;;9.90;99.90;;;;;;5417584;26;20238;-63
2024/04/20 07:19:47;;;;;;;7.77;5.83;;;9.90;99.90;;;;;;5416746;26;20249;-62
2024/04/20 07:22:12;;;;;;;10.23;6.10;;;9.90;99.90;;;;;;5417497;26;20257;-62
2024/04/20 07:24:38;;;;;;;5.80;5.30;;;10.00;99.90;;;;;;5417127;26;20234;-62
2024/04/20 07:27:04;;;;;;;5.27;4.63;;;10.00;99.90;;;;;;5416436;26;20349;-62
2024/04/20 07:29:30;;;;;;;4.70;4.30;;;10.00;99.90;;;;;;5417977;26;20230;-62
2024/04/20 07:31:56;;;;;;;6.17;4.87;;;9.90;99.90;;;;;;5416556;26;20433;-61
2024/04/20 07:34:29;;;;;;;5.17;4.70;;;9.80;99.90;;;;;;5417355;26;20403;-62
2024/04/20 07:36:56;;;;;;;3.97;3.67;;;9.80;99.90;;;;;;5416573;26;20458;-63
2024/04/20 07:39:23;;;;;;;4.60;4.20;;;9.80;99.90;;;;;;5417776;26;20887;-60
2024/04/20 07:41:49;;;;;;;20.50;13.73;;;9.80;99.90;;;;;;5416836;26;20493;-62
2024/04/20 07:44:15;;;;;;;137.80;83.80;;;9.80;99.90;;;;;;5385949;26;20995;-62
2024/04/20 07:46:44;;;;;;;67.10;42.57;;;9.80;99.90;;;;;;5416091;26;20446;-63
2024/04/20 07:49:10;;;;;;;8.20;5.40;;;9.80;99.90;;;;;;5417261;26;20243;-63
2024/04/20 07:51:35;;;;;;;4.87;3.60;;;9.80;99.90;;;;;;5416967;26;20518;-62
2024/04/20 07:54:01;;;;;;;4.30;4.00;;;9.90;99.90;;;;;;5417745;26;20229;-62
2024/04/20 07:56:27;;;;;;;4.20;3.80;;;9.90;99.90;;;;;;5417250;26;20338;-62
2024/04/20 07:58:53;;;;;;;4.20;3.80;;;9.90;99.90;;;;;;5416549;26;20956;-63
2024/04/20 08:01:18;;;;;;;3.60;3.30;;;9.90;99.90;;;;;;5415873;26;20443;-62
2024/04/20 08:03:44;;;;;;;3.97;3.57;;;9.90;99.90;;;;;;5384677;26;20227;-62
2024/04/20 08:06:10;;;;;;;3.30;3.10;;;9.90;99.90;;;;;;5416962;26;20223;-62
2024/04/20 08:08:36;;;;;;;3.33;3.03;;;9.80;99.90;;;;;;5415351;26;20287;-63
2024/04/20 08:11:02;;;;;;;2.80;2.67;;;9.80;99.90;;;;;;5415181;26;20232;-63
2024/04/20 08:13:29;;;;;;;3.23;3.10;;;9.80;99.90;;;;;;5411870;26;20493;-64
2024/04/20 08:15:55;;;;;;;3.50;3.30;;;9.80;99.90;;;;;;5406921;26;20452;-62
2024/04/20 08:18:21;;;;;;;3.20;3.00;;;9.80;99.90;;;;;;5411531;26;20568;-64
2024/04/20 08:20:53;;;;;;;4.07;3.70;;;9.80;99.90;;;;;;5411196;26;20527;-65
2024/04/20 08:23:18;;;;;;;3.20;2.90;;;9.70;99.90;;;;;;5411464;26;20286;-62
2024/04/20 08:25:44;;;;;;;3.30;3.10;;;9.80;99.90;;;;;;5416039;26;20445;-62
2024/04/20 08:28:10;;;;;;;4.10;3.50;;;9.80;99.90;;;;;;5415447;26;20253;-63
2024/04/20 08:30:36;;;;;;;3.53;3.33;;;9.80;99.90;;;;;;5415613;26;20235;-73
2024/04/20 08:33:01;;;;;;;3.80;3.50;;;9.90;99.90;;;;;;5415123;26;20302;-62
2024/04/20 08:35:27;;;;;;;3.23;2.97;;;9.90;99.90;;;;;;5415331;26;20280;-62
2024/04/20 08:37:53;;;;;;;3.57;3.27;;;9.90;99.90;;;;;;5415078;26;20363;-62
2024/04/20 08:40:19;;;;;;;3.60;3.40;;;9.80;99.90;;;;;;5416084;26;20230;-63
2024/04/20 08:42:46;;;;;;;490.97;281.70;;;9.80;99.90;;;;;;5414945;26;20238;-62
2024/04/20 08:45:14;;;;;;;52.20;29.63;;;9.80;99.90;;;;;;5416250;26;20796;-62
2024/04/20 08:47:43;;;;;;;14.40;12.00;;;9.80;99.90;;;;;;5414913;26;20464;-62
2024/04/20 08:50:09;;;;;;;4.43;4.13;;;9.80;99.90;;;;;;5414861;26;20455;-64
2024/04/20 08:52:39;;;;;;;3.60;3.30;;;9.80;99.90;;;;;;5411461;26;20441;-64
2024/04/20 08:55:05;;;;;;;3.57;3.37;;;9.80;99.90;;;;;;5416181;26;20524;-66
2024/04/20 08:57:36;;;;;;;4.50;4.30;;;9.90;99.90;;;;;;5415065;26;20552;-64
2024/04/20 09:00:02;;;;;;;4.60;4.20;;;9.90;99.90;;;;;;5415252;26;20554;-64
2024/04/20 09:02:31;;;;;;;3.30;3.20;;;10.00;99.90;;;;;;5407361;26;21050;-62
2024/04/20 09:04:58;;;;;;;3.80;3.60;;;10.00;99.90;;;;;;5415064;26;20772;-62
2024/04/20 09:07:26;;;;;;;4.90;3.80;;;10.10;99.90;;;;;;5415166;26;20489;-63
2024/04/20 09:09:52;;;;;;;3.50;3.40;;;10.20;99.90;;;;;;5415294;26;20438;-62
2024/04/20 09:12:18;;;;;;;4.43;4.03;;;10.30;99.90;;;;;;5384129;26;20443;-63
2024/04/20 09:14:44;;;;;;;4.17;3.67;;;10.40;99.90;;;;;;5414710;26;21039;-62
2024/04/20 09:17:09;;;;;;;4.13;3.83;;;10.40;99.90;;;;;;5384773;26;20509;-62
2024/04/20 09:19:35;;;;;;;4.97;3.30;;;10.40;99.90;;;;;;5443987;26;20239;-62
2024/04/20 09:22:12;;;;;;;3.37;3.17;;;10.60;99.90;;;;;;5450956;26;20235;-63
2024/04/20 09:24:38;;;;;;;3.40;3.20;;;10.70;99.90;;;;;;5416198;26;20296;-62
2024/04/20 09:27:05;;;;;;;5.30;3.50;;;10.80;99.90;;;;;;5416102;26;20425;-62
2024/04/20 09:29:32;;;;;;;3.53;3.37;;;11.00;99.90;;;;;;5416221;26;20493;-62
2024/04/20 09:31:58;;;;;;;4.17;3.97;;;11.10;99.90;;;;;;5383915;26;20449;-63
2024/04/20 09:34:25;;;;;;;3.50;3.30;;;11.20;99.90;;;;;;5384649;26;20488;-63
2024/04/20 09:36:51;;;;;;;3.93;3.73;;;11.30;99.90;;;;;;5415193;26;20226;-62
2024/04/20 09:39:18;;;;;;;3.10;2.90;;;11.40;99.90;;;;;;5415899;26;20434;-63
2024/04/20 09:41:50;;;;;;;3.80;3.60;;;11.50;99.90;;;;;;5415073;26;20443;-63
2024/04/20 09:44:18;;;;;;;2.90;2.70;;;11.50;99.90;;;;;;5447746;26;20459;-62
2024/04/20 09:46:50;;;;;;;3.40;3.10;;;11.60;99.90;;;;;;5451086;26;20774;-63
2024/04/20 09:49:16;;;;;;;3.60;2.90;;;11.60;99.90;;;;;;5451849;26;20493;-62
2024/04/20 09:52:03;;;;;;;3.70;3.50;;;11.60;99.90;;;;;;5453598;26;20447;-63
2024/04/20 09:54:32;;;;;;;3.53;3.23;;;11.60;99.90;;;;;;5455335;26;20439;-62
2024/04/20 09:57:00;;;;;;;3.33;3.13;;;11.60;99.90;;;;;;5454697;26;20443;-62
2024/04/20 09:59:26;;;;;;;3.27;3.03;;;11.60;99.90;;;;;;5455426;26;20767;-62
2024/04/20 10:01:54;;;;;;;3.57;3.40;;;11.60;99.90;;;;;;5422633;26;20495;-63
2024/04/20 10:04:22;;;;;;;3.70;3.40;;;11.60;99.90;;;;;;5455149;26;20475;-62
2024/04/20 10:06:49;;;;;;;3.97;3.63;;;11.60;99.90;;;;;;5454411;26;20503;-62
2024/04/20 10:09:17;;;;;;;3.90;3.60;;;11.50;99.90;;;;;;5455343;26;20439;-63
2024/04/20 10:11:44;;;;;;;3.93;3.73;;;11.50;99.90;;;;;;5454323;26;20424;-63
2024/04/20 10:14:11;;;;;;;3.93;3.73;;;11.40;99.90;;;;;;5454781;26;20848;-62
2024/04/20 10:16:37;;;;;;;4.30;4.10;;;11.40;99.90;;;;;;5455086;26;20609;-62
2024/04/20 10:19:03;;;;;;;4.27;4.00;;;11.30;99.90;;;;;;5454123;26;20460;-62
2024/04/20 10:21:29;;;;;;;4.00;3.70;;;11.30;99.90;;;;;;5423878;26;20480;-62
2024/04/20 10:23:57;;;;;;;3.67;3.37;;;11.10;99.90;;;;;;5454372;26;20210;-62
2024/04/20 10:26:30;;;;;;;3.83;3.63;;;11.10;99.90;;;;;;5423620;26;20824;-62
2024/04/20 10:29:20;;;;;;;4.23;3.43;;;11.00;99.90;;;;;;5422746;26;20935;-62
2024/04/20 10:31:56;;;;;;;3.40;3.20;;;11.00;99.90;;;;;;5454377;26;20448;-63
2024/04/20 10:34:25;;;;;;;3.33;3.13;;;10.90;99.90;;;;;;5454923;26;20459;-62
2024/04/20 10:37:02;;;;;;;3.20;3.00;;;10.80;99.90;;;;;;5453974;26;20435;-62
2024/04/20 10:39:28;;;;;;;3.20;3.10;;;10.80;99.90;;;;;;5454943;26;20761;-63
2024/04/20 10:42:07;;;;;;;4.10;3.90;;;11.00;99.90;;;;;;5453879;26;20769;-62
2024/04/20 10:44:33;;;;;;;3.50;3.20;;;11.20;99.90;;;;;;5454553;26;20432;-62
2024/04/20 10:46:58;;;;;;;2.93;2.73;;;11.40;99.90;;;;;;5453810;26;20428;-63
2024/04/20 10:49:27;;;;;;;3.30;3.10;;;11.40;99.90;;;;;;5454416;26;20429;-62
2024/04/20 10:51:54;;;;;;;3.60;3.30;;;11.50;99.90;;;;;;5453727;26;20295;-62
2024/04/20 10:54:21;;;;;;;2.70;2.50;;;11.50;99.90;;;;;;5454491;26;20446;-62
2024/04/20 10:56:54;;;;;;;2.70;2.60;;;11.60;99.90;;;;;;5453145;26;20435;-71
2024/04/20 10:59:25;;;;;;;3.77;3.00;;;11.70;99.90;;;;;;5422392;26;20428;-62
2024/04/20 11:01:51;;;;;;;3.57;3.07;;;11.90;99.90;;;;;;5453646;26;20484;-63
2024/04/20 11:04:18;;;;;;;3.37;3.27;;;12.20;99.90;;;;;;5453729;26;20888;-62
2024/04/20 11:06:43;;;;;;;3.07;2.87;;;12.40;99.90;;;;;;5454267;26;20567;-62
2024/04/20 11:09:10;;;;;;;3.20;3.07;;;12.60;99.90;;;;;;5421669;26;20506;-62
2024/04/20 11:11:36;;;;;;;3.60;3.30;;;12.80;99.90;;;;;;5454164;26;20220;-62
2024/04/20 11:14:03;;;;;;;2.53;2.40;;;12.90;99.90;;;;;;5453558;26;20429;-63
2024/04/20 11:16:30;;;;;;;2.63;2.53;;;12.90;99.90;;;;;;5454079;26;20425;-62
2024/04/20 11:18:56;;;;;;;2.80;2.70;;;12.90;99.90;;;;;;5452544;26;20469;-62
2024/04/20 11:21:22;;;;;;;3.07;2.80;;;12.90;99.90;;;;;;5452769;26;20453;-63
2024/04/20 11:23:48;;;;;;;3.93;3.10;;;12.90;99.90;;;;;;5452906;26;20567;-64
2024/04/20 11:26:15;;;;;;;2.70;2.60;;;13.00;99.90;;;;;;5454213;26;20228;-64
2024/04/20 11:28:41;;;;;;;3.30;2.50;;;13.10;99.90;;;;;;5453874;26;20443;-64
2024/04/20 11:31:10;;;;;;;3.10;3.00;;;13.30;99.90;;;;;;5453217;26;20494;-63
2024/04/20 11:33:36;;;;;;;370.73;235.97;;;13.50;99.90;;;;;;5453652;26;20436;-64
2024/04/20 11:36:07;;;;;;;64.00;45.50;;;13.60;99.90;;;;;;5453051;26;20427;-64
2024/04/20 11:38:33;;;;;;;3.73;3.53;;;13.60;99.90;;;;;;5454058;26;20546;-64
2024/04/20 11:40:59;;;;;;;2.90;2.70;;;13.50;99.90;;;;;;5453108;26;20439;-64
2024/04/20 11:43:25;;;;;;;3.53;2.70;;;13.40;99.90;;;;;;5453632;26;20247;-64
2024/04/20 11:45:55;;;;;;;71.80;43.80;;;13.20;99.90;;;;;;5453093;26;20431;-64
2024/04/20 11:48:25;;;;;;;34.10;26.33;;;13.10;99.90;;;;;;5453782;26;20328;-64
2024/04/20 11:51:01;;;;;;;6.53;5.93;;;13.20;99.90;;;;;;5420966;26;20487;-64
2024/04/20 11:56:21;;;;;;;3.40;3.20;;;13.50;99.90;;;;;;5384773;26;20456;-64
2024/04/20 11:58:48;;;;;;;3.47;3.20;;;13.90;99.90;;;;;;5453464;26;20491;-64
2024/04/20 12:01:14;;;;;;;3.17;2.97;;;14.00;99.90;;;;;;5445705;26;20537;-64
2024/04/20 12:03:40;;;;;;;2.70;2.50;;;14.10;99.90;;;;;;5452297;26;21031;-64
2024/04/20 12:06:09;;;;;;;2.60;2.40;;;14.00;99.90;;;;;;5451310;26;20443;-64
2024/04/20 12:08:35;;;;;;;2.40;2.33;;;13.90;99.90;;;;;;5448419;26;20337;-64
2024/04/20 12:11:01;;;;;;;3.20;3.00;;;13.70;99.90;;;;;;5451801;26;20456;-64
2024/04/20 12:13:30;;;;;;;2.50;2.40;;;13.70;99.90;;;;;;5451702;26;20612;-64
2024/04/20 12:15:56;;;;;;;1.80;1.80;;;13.50;99.90;;;;;;5451799;26;20977;-64
2024/04/20 12:18:22;;;;;;;1.70;1.60;;;13.50;99.90;;;;;;5441360;26;20567;-64
2024/04/20 12:20:47;;;;;;;5.80;2.33;;;13.60;99.90;;;;;;5416494;26;20276;-64
2024/04/20 12:23:14;;;;;;;116.97;78.80;;;13.70;99.90;;;;;;5385401;26;20473;-63
2024/04/20 12:25:47;;;;;;;38.43;30.33;;;13.80;99.90;;;;;;5417091;26;20517;-63
2024/04/20 12:28:13;;;;;;;15.30;12.70;;;13.90;99.90;;;;;;5416511;26;20771;-62
2024/04/20 12:30:39;;;;;;;7.10;3.03;;;14.00;99.90;;;;;;5417249;26;20427;-62
2024/04/20 12:33:05;;;;;;;2.87;2.77;;;14.00;99.90;;;;;;5355832;26;20633;-62
2024/04/20 12:35:35;;;;;;;2.90;2.70;;;14.20;99.90;;;;;;5417170;26;20233;-62
2024/04/20 12:38:00;;;;;;;4.43;2.20;;;14.10;99.90;;;;;;5416373;26;20263;-62
2024/04/20 12:40:26;;;;;;;2.90;2.50;;;14.00;99.90;;;;;;5416426;26;20498;-62
2024/04/20 12:42:52;;;;;;;2.57;2.37;;;13.80;99.90;;;;;;5416012;26;20236;-63
2024/04/20 12:45:17;;;;;;;3.07;2.73;;;13.90;99.90;;;;;;5417105;26;20231;-62
2024/04/20 12:47:46;;;;;;;4.53;2.17;;;14.10;99.90;;;;;;5416903;26;20273;-62
2024/04/20 12:50:12;;;;;;;2.10;2.00;;;14.10;99.90;;;;;;5416100;26;20318;-64
2024/04/20 12:52:38;;;;;;;3.90;2.03;;;14.20;99.90;;;;;;5416737;26;20438;-64